Time;durP1;ratioP1;P1;durP2;ratioP2;P2;SDS_P1;SDS_P2;PMS_P1;PMS_P2;Temp;Humidity;BMP_temperature;BMP_pressure;BME280_temperature;BME280_humidity;BME280_pressure;Samples;Min_cycle;Max_cycle;Signal;HPM_P1;HPM_P2
2021/05/16 00:00:16;;;;;;;1.67;0.70;;;10.40;69.90;;;;;;5090063;28;20185;-72
2021/05/16 00:02:44;;;;;;;1.80;0.80;;;10.40;70.60;;;;;;5083564;28;20528;-72
2021/05/16 00:05:14;;;;;;;1.83;0.68;;;10.30;70.30;;;;;;5075237;28;20192;-73
2021/05/16 00:07:43;;;;;;;1.60;0.70;;;10.30;70.50;;;;;;5092184;28;20185;-73
2021/05/16 00:10:15;;;;;;;1.50;0.70;;;10.30;70.30;;;;;;5073539;28;20190;-73
2021/05/16 00:12:42;;;;;;;1.45;0.70;;;10.30;70.80;;;;;;5071910;28;20590;-72
2021/05/16 00:15:12;;;;;;;1.60;0.60;;;10.20;70.80;;;;;;5088691;28;20193;-73
2021/05/16 00:17:39;;;;;;;1.50;0.70;;;10.30;71.30;;;;;;5092590;28;20281;-73
2021/05/16 00:20:10;;;;;;;1.50;0.80;;;10.20;71.10;;;;;;5075491;28;20224;-72
2021/05/16 00:22:39;;;;;;;1.60;0.80;;;10.20;71.10;;;;;;5072081;28;20218;-73
2021/05/16 00:25:11;;;;;;;1.85;0.75;;;10.20;71.10;;;;;;5087963;28;20272;-72
2021/05/16 00:27:53;;;;;;;1.60;0.70;;;10.20;71.20;;;;;;5092313;28;20189;-73
2021/05/16 00:30:26;;;;;;;1.40;0.60;;;10.20;71.30;;;;;;5073641;28;20190;-73
2021/05/16 00:32:57;;;;;;;1.80;0.68;;;10.20;71.30;;;;;;5082524;28;20224;-73
2021/05/16 00:35:34;;;;;;;2.25;0.60;;;10.20;71.30;;;;;;5072954;28;20193;-73
2021/05/16 00:38:04;;;;;;;2.10;0.90;;;10.10;71.30;;;;;;5083224;28;20218;-73
2021/05/16 00:40:36;;;;;;;1.60;0.80;;;10.10;71.30;;;;;;5094697;28;20195;-72
2021/05/16 00:43:04;;;;;;;1.60;0.60;;;10.10;72.00;;;;;;5083165;28;20190;-73
2021/05/16 00:45:31;;;;;;;1.90;0.80;;;10.00;71.90;;;;;;5094266;28;20670;-73
2021/05/16 00:47:59;;;;;;;1.60;0.70;;;10.00;72.00;;;;;;5084215;28;20182;-73
2021/05/16 00:50:37;;;;;;;1.85;0.75;;;9.90;73.40;;;;;;5080589;28;20674;-73
2021/05/16 00:53:13;;;;;;;2.13;0.70;;;9.90;73.50;;;;;;5095333;28;20216;-73
2021/05/16 00:55:41;;;;;;;1.92;0.70;;;9.90;73.60;;;;;;5075059;28;20185;-73
2021/05/16 00:58:12;;;;;;;1.40;0.60;;;9.90;73.50;;;;;;5075119;28;20186;-72
2021/05/16 01:00:44;;;;;;;1.50;0.70;;;9.80;73.10;;;;;;5094433;28;20246;-73
2021/05/16 01:03:14;;;;;;;1.50;0.60;;;9.80;73.20;;;;;;5095273;28;20188;-73
2021/05/16 01:05:47;;;;;;;2.03;0.80;;;9.80;73.50;;;;;;5074444;28;20190;-73
2021/05/16 01:08:17;;;;;;;2.13;0.80;;;9.80;73.40;;;;;;5075444;28;20543;-73
2021/05/16 01:10:52;;;;;;;1.50;0.60;;;9.80;73.50;;;;;;5075200;28;20589;-73
2021/05/16 01:13:19;;;;;;;1.50;0.80;;;9.80;73.50;;;;;;5082932;28;20567;-72
2021/05/16 01:15:46;;;;;;;1.50;0.65;;;9.80;73.40;;;;;;5074818;28;20185;-72
2021/05/16 01:18:18;;;;;;;1.50;0.60;;;9.70;73.50;;;;;;5081606;28;20268;-73
2021/05/16 01:20:49;;;;;;;1.60;0.70;;;9.70;73.60;;;;;;5094671;28;20648;-72
2021/05/16 01:23:20;;;;;;;1.52;0.82;;;9.70;73.80;;;;;;5086987;28;20194;-73
2021/05/16 01:25:48;;;;;;;1.80;0.80;;;9.60;74.00;;;;;;5080388;28;20631;-73
2021/05/16 01:28:22;;;;;;;1.70;0.80;;;9.70;74.10;;;;;;5094685;28;20651;-75
2021/05/16 01:30:57;;;;;;;2.20;0.93;;;9.70;73.70;;;;;;5087951;28;20185;-73
2021/05/16 01:33:23;;;;;;;2.92;0.90;;;9.60;73.90;;;;;;5073948;28;20225;-73
2021/05/16 01:35:50;;;;;;;2.38;1.02;;;9.60;73.90;;;;;;5094322;28;20200;-73
2021/05/16 01:38:26;;;;;;;1.45;0.70;;;9.60;73.50;;;;;;5094671;28;20185;-73
2021/05/16 01:40:53;;;;;;;1.50;0.70;;;9.50;72.60;;;;;;5074104;28;20666;-72
2021/05/16 01:43:21;;;;;;;1.50;0.70;;;9.30;73.30;;;;;;5074101;28;20575;-73
2021/05/16 01:45:50;;;;;;;1.60;0.77;;;9.20;73.50;;;;;;5093826;28;20287;-73
2021/05/16 01:48:17;;;;;;;1.50;0.77;;;9.20;73.90;;;;;;5094412;28;20196;-73
2021/05/16 01:50:48;;;;;;;1.55;0.63;;;9.10;74.10;;;;;;5074574;28;20540;-73
2021/05/16 01:53:16;;;;;;;1.73;0.70;;;9.10;74.30;;;;;;5073870;28;20210;-73
2021/05/16 01:55:46;;;;;;;1.70;0.70;;;9.20;74.20;;;;;;5092152;28;20654;-73
2021/05/16 01:58:13;;;;;;;1.60;0.80;;;9.20;74.10;;;;;;5076606;28;20186;-73
2021/05/16 02:00:44;;;;;;;2.00;0.80;;;9.20;73.80;;;;;;5074060;28;20185;-73
2021/05/16 02:03:15;;;;;;;1.83;0.70;;;9.30;73.90;;;;;;5089736;28;20239;-72
2021/05/16 02:05:49;;;;;;;1.50;0.70;;;9.30;73.40;;;;;;5092828;28;20189;-73
2021/05/16 02:08:19;;;;;;;2.25;0.70;;;9.20;73.70;;;;;;5081495;28;20247;-73
2021/05/16 02:10:47;;;;;;;1.90;1.00;;;9.30;74.00;;;;;;5093160;28;20224;-73
2021/05/16 02:13:14;;;;;;;1.70;0.70;;;9.20;73.80;;;;;;5073200;28;20221;-73
2021/05/16 02:15:41;;;;;;;1.80;0.90;;;9.10;73.80;;;;;;5090617;28;20193;-73
2021/05/16 02:18:08;;;;;;;1.80;1.00;;;9.00;74.10;;;;;;5088881;28;20185;-72
2021/05/16 02:20:35;;;;;;;1.73;0.60;;;9.00;74.10;;;;;;5093357;28;20749;-72
2021/05/16 02:23:04;;;;;;;1.70;0.80;;;8.90;74.00;;;;;;5091668;28;20274;-73
2021/05/16 02:25:30;;;;;;;2.60;0.80;;;8.80;74.00;;;;;;5093616;28;20196;-72
2021/05/16 02:28:05;;;;;;;2.30;1.10;;;8.80;74.70;;;;;;5091683;28;20643;-73
2021/05/16 02:30:33;;;;;;;4.07;2.03;;;8.60;74.50;;;;;;5093430;28;20279;-72
2021/05/16 02:33:04;;;;;;;6.35;2.97;;;8.50;74.60;;;;;;5077399;28;20611;-73
2021/05/16 02:35:31;;;;;;;7.68;2.30;;;8.40;75.30;;;;;;5073007;28;20617;-73
2021/05/16 02:37:58;;;;;;;3.85;1.70;;;8.40;75.50;;;;;;5088021;28;20803;-72
2021/05/16 02:40:26;;;;;;;2.33;1.10;;;8.30;75.00;;;;;;5093749;28;20188;-72
2021/05/16 02:42:52;;;;;;;2.67;0.98;;;8.30;74.00;;;;;;5078737;28;20239;-72
2021/05/16 02:45:20;;;;;;;4.65;1.33;;;8.30;74.30;;;;;;5072650;28;20244;-73
2021/05/16 02:47:49;;;;;;;2.80;1.65;;;8.30;74.30;;;;;;5086068;28;20188;-73
2021/05/16 02:50:16;;;;;;;6.47;2.00;;;8.30;75.30;;;;;;5092757;28;20204;-72
2021/05/16 02:52:43;;;;;;;2.58;1.13;;;8.30;76.00;;;;;;5080053;28;20263;-72
2021/05/16 02:55:12;;;;;;;1.60;0.60;;;8.30;76.60;;;;;;5072772;28;20186;-72
2021/05/16 02:57:40;;;;;;;1.70;0.80;;;8.30;77.10;;;;;;5073634;28;20225;-73
2021/05/16 03:00:12;;;;;;;1.70;0.80;;;8.30;77.20;;;;;;5072646;28;20276;-72
2021/05/16 03:02:40;;;;;;;1.63;0.80;;;8.30;77.20;;;;;;5082394;28;20185;-73
2021/05/16 03:05:11;;;;;;;7.05;3.83;;;8.30;76.80;;;;;;5093137;28;20207;-74
2021/05/16 03:07:46;;;;;;;4.43;2.05;;;8.10;75.50;;;;;;5083320;28;20205;-73
2021/05/16 03:10:14;;;;;;;2.22;1.45;;;8.00;76.70;;;;;;5072686;28;20189;-73
2021/05/16 03:12:41;;;;;;;2.22;1.20;;;7.90;77.70;;;;;;5081205;28;20225;-73
2021/05/16 03:15:10;;;;;;;1.70;0.80;;;7.80;78.50;;;;;;5093199;28;20197;-73
2021/05/16 03:17:38;;;;;;;1.85;0.85;;;7.80;78.90;;;;;;5083744;28;20243;-74
2021/05/16 03:20:07;;;;;;;2.35;1.42;;;7.80;78.80;;;;;;5072657;28;20186;-72
2021/05/16 03:22:34;;;;;;;3.75;1.50;;;7.80;78.50;;;;;;5079998;28;20269;-73
2021/05/16 03:25:04;;;;;;;3.35;1.85;;;7.70;78.70;;;;;;5092701;28;20559;-73
2021/05/16 03:27:39;;;;;;;2.10;1.50;;;7.70;79.00;;;;;;5084618;28;20190;-72
2021/05/16 03:30:09;;;;;;;2.03;1.15;;;7.60;79.70;;;;;;5072497;28;20705;-72
2021/05/16 03:32:43;;;;;;;3.03;1.17;;;7.50;80.40;;;;;;5079323;28;20236;-72
2021/05/16 03:35:14;;;;;;;1.80;0.90;;;7.50;80.70;;;;;;5092620;28;20214;-72
2021/05/16 03:37:44;;;;;;;1.50;0.70;;;7.50;81.60;;;;;;5083542;28;20186;-72
2021/05/16 03:40:11;;;;;;;1.50;0.70;;;7.40;81.90;;;;;;5072390;28;20198;-72
2021/05/16 03:42:43;;;;;;;2.95;0.77;;;7.40;81.90;;;;;;5079794;28;20188;-72
2021/05/16 03:45:12;;;;;;;1.77;0.70;;;7.50;82.00;;;;;;5092730;28;20189;-73
2021/05/16 03:47:40;;;;;;;2.13;0.98;;;7.60;81.80;;;;;;5083805;28;20181;-73
2021/05/16 03:50:10;;;;;;;1.63;1.00;;;7.60;81.70;;;;;;5072388;28;20198;-72
2021/05/16 03:52:39;;;;;;;2.50;1.75;;;7.60;81.20;;;;;;5079383;28;20283;-72
2021/05/16 03:55:07;;;;;;;8.23;4.45;;;7.50;81.30;;;;;;5092550;28;20196;-72
2021/05/16 03:57:34;;;;;;;9.95;4.20;;;7.50;81.50;;;;;;5084696;28;20546;-72
2021/05/16 04:00:01;;;;;;;11.57;3.47;;;7.50;80.80;;;;;;5072067;28;20193;-72
2021/05/16 04:02:28;;;;;;;4.47;2.10;;;7.50;81.10;;;;;;5077426;28;20635;-72
2021/05/16 04:04:55;;;;;;;7.78;2.97;;;7.50;81.20;;;;;;5092664;28;20193;-72
2021/05/16 04:07:21;;;;;;;5.45;2.70;;;7.50;81.40;;;;;;5086433;28;20617;-73
2021/05/16 04:09:49;;;;;;;5.55;2.60;;;7.50;81.70;;;;;;5072195;28;20636;-73
2021/05/16 04:12:19;;;;;;;6.45;2.65;;;7.50;82.40;;;;;;5076181;28;20231;-72
2021/05/16 04:14:49;;;;;;;6.03;3.10;;;7.60;82.40;;;;;;5094666;28;20208;-72
2021/05/16 04:17:16;;;;;;;7.88;2.47;;;7.70;82.00;;;;;;5091638;28;20200;-72
2021/05/16 04:19:52;;;;;;;4.05;1.95;;;7.80;82.10;;;;;;5076119;28;20193;-72
2021/05/16 04:22:19;;;;;;;3.95;1.70;;;7.80;81.50;;;;;;5075603;28;20186;-72
2021/05/16 04:24:51;;;;;;;4.28;1.65;;;7.80;81.50;;;;;;5075997;28;20193;-73
2021/05/16 04:27:18;;;;;;;3.45;1.90;;;7.80;81.80;;;;;;5080011;28;20246;-72
2021/05/16 04:29:45;;;;;;;5.47;1.52;;;7.90;81.70;;;;;;5096353;28;20280;-73
2021/05/16 04:32:22;;;;;;;6.15;3.90;;;7.90;82.00;;;;;;5092251;28;20721;-73
2021/05/16 04:34:49;;;;;;;4.38;1.98;;;8.00;82.20;;;;;;5075866;28;20197;-73
2021/05/16 04:37:16;;;;;;;2.72;1.30;;;8.00;82.80;;;;;;5079181;28;20177;-73
2021/05/16 04:39:46;;;;;;;2.10;1.33;;;8.10;82.60;;;;;;5096102;28;20189;-72
2021/05/16 04:42:15;;;;;;;2.10;1.45;;;8.00;81.40;;;;;;5092697;28;20189;-73
2021/05/16 04:44:47;;;;;;;3.20;1.17;;;8.00;81.40;;;;;;5075413;28;20223;-73
2021/05/16 04:47:18;;;;;;;2.95;1.48;;;8.00;81.10;;;;;;5078517;28;20193;-73
2021/05/16 04:49:47;;;;;;;2.80;1.20;;;7.90;81.30;;;;;;5095670;28;20643;-73
2021/05/16 04:52:13;;;;;;;1.92;1.02;;;7.90;82.30;;;;;;5092677;28;20201;-73
2021/05/16 04:54:45;;;;;;;2.83;1.20;;;7.90;82.80;;;;;;5075666;28;20221;-73
2021/05/16 04:57:12;;;;;;;1.70;1.00;;;8.00;83.50;;;;;;5076465;28;20186;-73
2021/05/16 04:59:40;;;;;;;1.60;1.00;;;8.10;83.40;;;;;;5075370;28;20281;-73
2021/05/16 05:02:08;;;;;;;1.70;0.80;;;8.00;83.30;;;;;;5076417;28;20185;-73
2021/05/16 05:04:36;;;;;;;1.98;1.25;;;8.10;83.50;;;;;;5095514;28;20193;-73
2021/05/16 05:07:06;;;;;;;1.40;0.70;;;8.10;83.70;;;;;;5093803;28;20831;-73
2021/05/16 05:09:39;;;;;;;1.70;0.90;;;8.20;84.50;;;;;;5073709;28;20229;-74
2021/05/16 05:12:07;;;;;;;2.75;0.88;;;8.30;84.50;;;;;;5075062;28;20209;-73
2021/05/16 05:14:34;;;;;;;3.08;1.90;;;8.30;85.00;;;;;;5074963;28;20217;-72
2021/05/16 05:17:02;;;;;;;3.03;1.65;;;8.40;84.70;;;;;;5074842;28;20193;-73
2021/05/16 05:19:29;;;;;;;2.95;1.40;;;8.50;84.80;;;;;;5078575;28;20193;-72
2021/05/16 05:21:56;;;;;;;4.30;1.15;;;8.50;86.20;;;;;;5074209;28;20201;-73
2021/05/16 05:24:24;;;;;;;2.53;0.90;;;8.70;87.10;;;;;;5075397;28;20668;-73
2021/05/16 05:26:51;;;;;;;1.88;1.10;;;8.80;88.20;;;;;;5074327;28;20194;-72
2021/05/16 05:29:18;;;;;;;1.95;0.80;;;8.90;87.90;;;;;;5076017;28;20644;-73
2021/05/16 05:31:45;;;;;;;1.70;0.80;;;9.00;86.70;;;;;;5074049;28;20848;-73
2021/05/16 05:34:20;;;;;;;3.10;0.80;;;9.20;86.80;;;;;;5078825;28;20213;-73
2021/05/16 05:36:47;;;;;;;2.17;0.85;;;9.30;86.30;;;;;;5074464;28;20214;-73
2021/05/16 05:39:14;;;;;;;2.85;1.10;;;9.50;86.00;;;;;;5074851;28;20228;-73
2021/05/16 05:41:43;;;;;;;2.63;1.20;;;9.60;85.80;;;;;;5074564;28;20194;-73
2021/05/16 05:44:11;;;;;;;4.53;1.70;;;9.80;85.70;;;;;;5091709;28;20277;-74
2021/05/16 05:46:43;;;;;;;2.20;1.17;;;9.90;85.30;;;;;;5085043;28;20201;-73
2021/05/16 05:49:12;;;;;;;5.82;1.25;;;10.10;84.00;;;;;;5075117;28;20186;-73
2021/05/16 05:51:39;;;;;;;2.15;1.10;;;10.20;83.00;;;;;;5082955;28;20181;-73
2021/05/16 05:54:06;;;;;;;1.77;0.88;;;10.30;82.90;;;;;;5091067;28;20601;-73
2021/05/16 05:56:34;;;;;;;1.92;0.90;;;10.50;80.90;;;;;;5084455;28;20199;-73
2021/05/16 05:59:03;;;;;;;1.65;0.85;;;10.50;80.40;;;;;;5074430;28;20276;-73
2021/05/16 06:01:50;;;;;;;1.77;0.95;;;10.60;77.40;;;;;;5086150;28;20242;-73
2021/05/16 06:04:20;;;;;;;2.42;0.90;;;10.70;76.50;;;;;;5073727;28;20232;-74
2021/05/16 06:06:46;;;;;;;1.60;0.80;;;10.70;76.10;;;;;;5074103;28;20211;-73
2021/05/16 06:09:14;;;;;;;1.50;0.70;;;10.80;75.80;;;;;;5077775;28;20193;-73
2021/05/16 06:11:41;;;;;;;2.50;1.00;;;10.90;76.20;;;;;;5073938;28;20193;-73
2021/05/16 06:14:11;;;;;;;1.77;0.95;;;11.00;75.40;;;;;;5073556;28;20631;-73
2021/05/16 06:16:38;;;;;;;2.20;0.75;;;11.20;75.20;;;;;;5074427;28;20547;-73
2021/05/16 06:19:05;;;;;;;5.03;0.90;;;11.20;76.70;;;;;;5073464;28;20190;-73
2021/05/16 06:21:34;;;;;;;4.25;0.85;;;11.30;77.00;;;;;;5076312;28;20182;-73
2021/05/16 06:24:04;;;;;;;1.60;0.90;;;11.40;75.90;;;;;;5073772;28;20202;-73
2021/05/16 06:26:32;;;;;;;2.20;0.93;;;11.50;75.40;;;;;;5073377;28;20664;-74
2021/05/16 06:29:00;;;;;;;2.20;1.00;;;11.60;74.20;;;;;;5076530;28;20192;-73
2021/05/16 06:31:27;;;;;;;3.22;1.15;;;11.80;72.60;;;;;;5073297;28;20247;-73
2021/05/16 06:33:55;;;;;;;2.90;0.90;;;11.90;72.30;;;;;;5074657;28;20216;-74
2021/05/16 06:36:22;;;;;;;2.60;1.02;;;12.00;69.90;;;;;;5074731;28;20190;-73
2021/05/16 06:38:50;;;;;;;2.95;1.08;;;12.00;68.40;;;;;;5076069;28;20555;-73
2021/05/16 06:41:16;;;;;;;2.15;1.10;;;12.10;67.50;;;;;;5073087;28;20189;-73
2021/05/16 06:43:48;;;;;;;3.40;1.10;;;12.20;67.20;;;;;;5073366;28;20181;-73
2021/05/16 06:46:15;;;;;;;2.90;1.00;;;12.40;66.90;;;;;;5072518;28;20189;-73
2021/05/16 06:48:47;;;;;;;1.67;0.85;;;12.50;66.90;;;;;;5075572;28;20193;-73
2021/05/16 06:51:14;;;;;;;3.60;0.90;;;12.60;65.30;;;;;;5073460;28;20300;-73
2021/05/16 06:53:40;;;;;;;3.60;1.20;;;12.70;65.00;;;;;;5072567;28;20253;-73
2021/05/16 06:56:11;;;;;;;2.03;1.10;;;12.80;64.70;;;;;;5072818;28;20277;-73
2021/05/16 06:58:38;;;;;;;5.55;1.83;;;12.90;66.40;;;;;;5072955;28;20264;-73
2021/05/16 07:01:05;;;;;;;6.80;1.58;;;13.10;66.10;;;;;;5073067;28;20236;-73
2021/05/16 07:03:34;;;;;;;2.40;1.05;;;13.30;66.50;;;;;;5072464;28;20281;-74
2021/05/16 07:06:01;;;;;;;4.35;1.33;;;13.40;66.60;;;;;;5089954;28;20541;-74
2021/05/16 07:08:27;;;;;;;3.47;2.22;;;13.60;65.70;;;;;;5090482;28;20284;-73
2021/05/16 07:10:55;;;;;;;3.05;1.05;;;13.80;65.50;;;;;;5090440;28;20292;-73
2021/05/16 07:13:22;;;;;;;3.45;1.58;;;14.00;64.40;;;;;;5090363;28;20223;-73
2021/05/16 07:15:49;;;;;;;5.25;2.17;;;14.10;64.90;;;;;;5089947;28;20184;-73
2021/05/16 07:18:15;;;;;;;5.97;2.03;;;14.20;63.00;;;;;;5087344;28;20190;-74
2021/05/16 07:20:42;;;;;;;8.77;2.10;;;14.40;61.30;;;;;;5072130;28;20284;-73
2021/05/16 07:23:09;;;;;;;5.70;1.52;;;14.50;61.60;;;;;;5074341;28;20471;-73
2021/05/16 07:25:35;;;;;;;2.47;1.47;;;14.70;60.90;;;;;;5072055;28;20758;-74
2021/05/16 07:28:02;;;;;;;7.70;1.70;;;14.90;60.20;;;;;;5072134;28;20495;-74
2021/05/16 07:30:29;;;;;;;4.10;1.70;;;15.00;58.00;;;;;;5072244;28;20500;-73
2021/05/16 07:32:56;;;;;;;4.50;1.40;;;15.20;58.50;;;;;;5075563;28;20558;-74
2021/05/16 07:35:23;;;;;;;3.60;1.50;;;15.30;58.10;;;;;;5072050;28;20444;-73
2021/05/16 07:37:49;;;;;;;5.93;3.40;;;15.40;55.90;;;;;;5072529;28;20930;-74
2021/05/16 07:40:16;;;;;;;3.33;1.90;;;15.60;55.30;;;;;;5072631;28;21007;-73
2021/05/16 07:42:44;;;;;;;3.20;1.53;;;15.80;56.10;;;;;;5078382;28;20431;-74
2021/05/16 07:45:22;;;;;;;6.60;1.50;;;15.90;56.50;;;;;;5072640;28;20487;-74
2021/05/16 07:47:53;;;;;;;5.33;1.40;;;16.00;54.30;;;;;;5073774;28;20440;-74
2021/05/16 07:50:20;;;;;;;8.17;1.53;;;16.10;53.50;;;;;;5076689;28;20436;-74
2021/05/16 07:52:49;;;;;;;4.17;1.43;;;16.20;52.60;;;;;;5081888;28;20434;-73
2021/05/16 07:55:24;;;;;;;3.80;1.50;;;16.40;52.90;;;;;;5078498;28;20985;-74
2021/05/16 07:57:53;;;;;;;4.60;1.57;;;16.80;52.60;;;;;;5076713;28;20440;-74
2021/05/16 08:00:20;;;;;;;4.20;1.30;;;17.30;49.10;;;;;;5067999;28;20786;-73
2021/05/16 08:02:50;;;;;;;4.33;1.50;;;17.70;45.80;;;;;;5080162;28;20435;-74
2021/05/16 08:05:20;;;;;;;7.00;1.70;;;17.80;45.60;;;;;;5075466;28;20439;-73
2021/05/16 08:07:47;;;;;;;4.93;1.50;;;17.90;45.80;;;;;;5083194;28;20439;-73
2021/05/16 08:10:14;;;;;;;5.73;1.60;;;17.90;45.00;;;;;;5093389;28;20526;-73
2021/05/16 08:12:41;;;;;;;3.27;1.40;;;17.70;44.50;;;;;;5080335;28;20506;-73
2021/05/16 08:15:13;;;;;;;4.17;0.80;;;17.80;45.30;;;;;;5079686;28;20470;-74
2021/05/16 08:17:40;;;;;;;2.40;1.60;;;18.00;46.40;;;;;;5080371;28;20451;-74
2021/05/16 08:20:09;;;;;;;4.53;1.23;;;18.20;43.80;;;;;;5078147;28;20530;-73
2021/05/16 08:22:36;;;;;;;5.20;2.33;;;18.50;43.80;;;;;;5075760;28;20475;-72
2021/05/16 08:25:04;;;;;;;4.40;1.70;;;19.00;44.80;;;;;;5079773;28;20443;-73
2021/05/16 08:27:30;;;;;;;2.50;1.00;;;19.40;43.30;;;;;;5075459;28;20444;-73
2021/05/16 08:29:57;;;;;;;4.47;1.40;;;19.50;41.90;;;;;;5075835;28;20475;-73
2021/05/16 08:32:23;;;;;;;6.23;1.40;;;19.50;41.30;;;;;;5075305;28;20561;-73
2021/05/16 08:34:50;;;;;;;4.07;1.30;;;19.60;41.10;;;;;;5075017;28;20522;-74
2021/05/16 08:37:17;;;;;;;3.00;1.17;;;19.70;40.80;;;;;;5076019;28;20443;-74
2021/05/16 08:39:44;;;;;;;5.70;1.77;;;20.00;41.10;;;;;;5075270;28;20485;-75
2021/05/16 08:42:11;;;;;;;3.67;1.10;;;20.10;41.40;;;;;;5077923;28;20489;-74
2021/05/16 08:44:38;;;;;;;2.33;1.00;;;20.40;41.40;;;;;;5074927;28;20976;-74
2021/05/16 08:47:09;;;;;;;2.77;1.20;;;20.60;40.10;;;;;;5077717;28;20475;-73
2021/05/16 08:49:36;;;;;;;3.13;0.80;;;20.80;40.30;;;;;;5075806;28;20433;-74
2021/05/16 08:52:03;;;;;;;3.83;1.20;;;20.80;38.20;;;;;;5075272;28;20440;-74
2021/05/16 08:54:30;;;;;;;5.30;1.00;;;20.80;38.40;;;;;;5075151;28;20523;-74
2021/05/16 08:56:57;;;;;;;4.47;0.93;;;20.90;39.10;;;;;;5075349;28;20958;-73
2021/05/16 08:59:27;;;;;;;5.37;0.90;;;21.10;38.00;;;;;;5077696;28;20440;-74
2021/05/16 09:01:54;;;;;;;2.63;1.10;;;21.10;37.50;;;;;;5075862;28;20450;-74
2021/05/16 09:04:24;;;;;;;5.77;1.90;;;21.10;37.50;;;;;;5075143;28;20428;-73
2021/05/16 09:06:53;;;;;;;3.97;1.20;;;21.10;36.20;;;;;;5079047;28;20454;-73
2021/05/16 09:09:27;;;;;;;3.57;1.00;;;21.10;36.20;;;;;;5074738;28;20999;-74
2021/05/16 09:11:59;;;;;;;3.80;1.43;;;21.10;36.40;;;;;;5075317;28;20464;-74
2021/05/16 09:14:42;;;;;;;3.47;1.10;;;21.10;36.40;;;;;;5075508;28;20479;-73
2021/05/16 09:17:29;;;;;;;2.60;1.10;;;21.20;37.50;;;;;;5088812;28;20964;-74
2021/05/16 09:20:00;;;;;;;3.30;1.00;;;21.30;35.70;;;;;;5095568;28;20423;-74
2021/05/16 09:22:49;;;;;;;4.40;1.00;;;21.40;36.20;;;;;;5076606;28;20470;-75
2021/05/16 09:25:23;;;;;;;2.77;1.00;;;21.40;35.70;;;;;;5070344;28;20921;-74
2021/05/16 09:28:08;;;;;;;2.43;0.90;;;21.50;37.40;;;;;;5072278;28;20432;-75
2021/05/16 09:30:47;;;;;;;7.47;1.27;;;21.80;37.40;;;;;;5083560;28;20765;-74
2021/05/16 09:33:17;;;;;;;4.37;1.43;;;22.10;36.70;;;;;;5072146;28;20471;-74
2021/05/16 09:35:50;;;;;;;3.07;0.87;;;22.60;36.90;;;;;;5073467;28;20435;-73
2021/05/16 09:38:19;;;;;;;2.70;1.00;;;22.70;31.50;;;;;;5072721;28;20448;-73
2021/05/16 09:41:03;;;;;;;3.70;1.20;;;22.70;32.60;;;;;;5072705;28;20743;-74
2021/05/16 09:43:33;;;;;;;3.60;1.40;;;22.80;33.00;;;;;;5075106;28;20439;-75
2021/05/16 09:46:02;;;;;;;4.63;1.40;;;22.80;32.70;;;;;;5076103;28;20801;-74
2021/05/16 09:48:37;;;;;;;2.63;0.97;;;22.90;33.00;;;;;;5077723;28;20428;-75
2021/05/16 09:51:09;;;;;;;3.20;1.07;;;23.00;31.20;;;;;;5090518;28;20496;-74
2021/05/16 09:53:50;;;;;;;2.70;0.90;;;23.00;31.00;;;;;;5073617;28;20475;-74
2021/05/16 09:56:20;;;;;;;2.50;1.20;;;22.60;29.20;;;;;;5077709;28;20442;-74
2021/05/16 09:58:54;;;;;;;3.77;0.90;;;22.10;28.60;;;;;;5073541;28;21052;-74
2021/05/16 10:01:22;;;;;;;2.90;0.90;;;21.70;30.80;;;;;;5073792;28;20506;-73
2021/05/16 10:03:49;;;;;;;3.40;1.17;;;21.80;31.10;;;;;;5073646;28;20432;-74
2021/05/16 10:06:17;;;;;;;2.33;1.10;;;22.00;31.80;;;;;;5073209;28;20443;-74
2021/05/16 10:08:47;;;;;;;2.67;1.00;;;22.20;31.00;;;;;;5077675;28;20433;-74
2021/05/16 10:11:14;;;;;;;4.47;1.03;;;22.00;31.50;;;;;;5077441;28;20443;-74
2021/05/16 10:13:47;;;;;;;2.50;1.03;;;21.80;31.50;;;;;;5085775;28;20507;-73
2021/05/16 10:16:17;;;;;;;4.53;1.00;;;21.30;31.10;;;;;;5078108;28;20792;-74
2021/05/16 10:18:46;;;;;;;4.93;1.30;;;21.30;31.90;;;;;;5094412;28;20466;-74
2021/05/16 10:21:17;;;;;;;7.47;1.13;;;21.30;30.80;;;;;;5094064;28;20528;-74
2021/05/16 10:23:46;;;;;;;7.43;2.07;;;21.10;30.90;;;;;;5090753;28;20474;-73
2021/05/16 10:26:30;;;;;;;4.60;1.13;;;20.70;30.80;;;;;;5073436;28;20467;-74
2021/05/16 10:29:05;;;;;;;5.37;1.30;;;20.20;32.30;;;;;;5086852;28;20514;-74
2021/05/16 10:31:53;;;;;;;2.87;1.20;;;20.00;33.20;;;;;;5093962;28;20537;-74
2021/05/16 10:34:42;;;;;;;2.90;1.20;;;20.00;32.60;;;;;;5094157;28;20506;-74
2021/05/16 10:37:13;;;;;;;3.27;0.80;;;19.90;32.70;;;;;;5093602;28;20959;-74
2021/05/16 10:39:53;;;;;;;3.23;0.93;;;19.90;33.60;;;;;;5074451;28;20443;-74
2021/05/16 10:42:32;;;;;;;3.93;1.23;;;19.90;32.80;;;;;;5073653;28;20436;-73
2021/05/16 10:45:05;;;;;;;2.63;0.80;;;19.80;33.80;;;;;;5073349;28;20429;-74
2021/05/16 10:48:10;;;;;;;6.23;1.87;;;19.70;32.90;;;;;;5073841;28;20493;-74
2021/05/16 10:50:52;;;;;;;5.90;2.40;;;19.60;33.50;;;;;;5075139;28;20527;-74
2021/05/16 10:53:27;;;;;;;9.10;3.40;;;19.70;33.80;;;;;;5093649;28;20549;-74
2021/05/16 10:56:13;;;;;;;4.97;2.13;;;19.80;33.90;;;;;;5093674;28;20449;-74
2021/05/16 10:58:45;;;;;;;6.87;3.13;;;19.80;33.80;;;;;;5092672;28;20802;-74
2021/05/16 11:01:17;;;;;;;4.90;1.43;;;20.10;34.10;;;;;;5093382;28;20424;-74
2021/05/16 11:03:50;;;;;;;2.80;1.10;;;20.10;32.80;;;;;;5086025;28;20431;-74
2021/05/16 11:06:18;;;;;;;3.23;1.03;;;20.00;32.80;;;;;;5092381;28;20435;-74
2021/05/16 11:09:10;;;;;;;3.63;1.40;;;19.80;32.30;;;;;;5090736;28;20998;-74
2021/05/16 11:11:56;;;;;;;4.00;1.20;;;19.40;33.40;;;;;;5093468;28;20522;-73
2021/05/16 11:14:25;;;;;;;2.50;1.13;;;19.10;34.60;;;;;;5093468;28;20612;-73
2021/05/16 11:16:54;;;;;;;2.93;1.50;;;19.00;34.40;;;;;;5093163;28;20435;-73
2021/05/16 11:19:22;;;;;;;4.60;1.77;;;18.90;35.40;;;;;;5093581;28;20431;-73
2021/05/16 11:21:50;;;;;;;4.67;1.97;;;18.80;34.80;;;;;;5093073;28;20913;-73
2021/05/16 11:24:31;;;;;;;4.70;1.37;;;18.90;35.30;;;;;;5093114;28;20431;-74
2021/05/16 11:26:58;;;;;;;4.83;1.27;;;18.90;35.70;;;;;;5093458;28;20520;-73
2021/05/16 11:29:25;;;;;;;4.03;1.00;;;19.10;36.30;;;;;;5093374;28;20486;-74
2021/05/16 11:32:03;;;;;;;3.20;1.13;;;19.20;34.50;;;;;;5093037;28;20546;-74
2021/05/16 11:34:31;;;;;;;2.60;1.37;;;19.20;34.30;;;;;;5112476;28;21367;-74
2021/05/16 11:37:15;;;;;;;2.50;1.10;;;19.30;33.30;;;;;;5112894;28;20500;-74
2021/05/16 11:39:41;;;;;;;4.10;1.20;;;19.40;33.60;;;;;;5113334;28;20434;-74
2021/05/16 11:42:08;;;;;;;2.50;1.00;;;19.50;33.00;;;;;;5113463;28;20434;-74
2021/05/16 11:44:34;;;;;;;3.10;1.10;;;19.50;33.50;;;;;;5113222;28;20535;-73
2021/05/16 11:47:01;;;;;;;3.67;1.53;;;19.40;33.20;;;;;;5113237;28;20438;-74
2021/05/16 11:49:30;;;;;;;4.20;1.30;;;19.30;33.70;;;;;;5113383;28;20540;-74
2021/05/16 11:51:58;;;;;;;2.80;0.80;;;19.20;33.80;;;;;;5113085;28;20519;-73
2021/05/16 11:54:27;;;;;;;1.60;0.60;;;19.10;32.60;;;;;;5113027;28;20955;-73
2021/05/16 11:56:53;;;;;;;3.70;1.03;;;19.10;32.20;;;;;;5113236;28;20438;-74
2021/05/16 11:59:29;;;;;;;2.90;0.97;;;19.10;32.10;;;;;;5113158;28;21249;-74
2021/05/16 12:01:55;;;;;;;2.60;1.07;;;19.00;32.40;;;;;;5113181;28;20441;-73
2021/05/16 12:04:22;;;;;;;1.97;1.07;;;18.90;30.50;;;;;;5113065;28;20474;-73
2021/05/16 12:06:50;;;;;;;1.97;0.80;;;18.50;31.00;;;;;;5113141;28;20465;-73
2021/05/16 12:09:19;;;;;;;2.90;1.10;;;18.30;31.40;;;;;;5113153;28;20750;-73
2021/05/16 12:11:47;;;;;;;2.17;0.80;;;18.00;32.70;;;;;;5113042;28;20434;-73
2021/05/16 12:14:15;;;;;;;2.60;1.10;;;18.00;32.30;;;;;;5112861;28;20994;-73
2021/05/16 12:16:50;;;;;;;2.07;0.90;;;18.00;33.30;;;;;;5112981;28;20981;-73
2021/05/16 12:19:19;;;;;;;1.83;0.80;;;18.00;33.50;;;;;;5113150;28;20461;-73
2021/05/16 12:21:49;;;;;;;2.60;1.03;;;18.00;33.40;;;;;;5112962;28;20445;-73
2021/05/16 12:24:20;;;;;;;2.83;1.17;;;17.90;33.30;;;;;;5113288;28;20466;-73
2021/05/16 12:26:46;;;;;;;2.33;0.87;;;18.00;33.60;;;;;;5112957;28;20469;-74
2021/05/16 12:29:14;;;;;;;2.63;0.90;;;18.00;32.60;;;;;;5112599;28;20931;-73
2021/05/16 12:31:41;;;;;;;1.87;0.77;;;18.10;32.30;;;;;;5112954;28;20465;-73
2021/05/16 12:34:08;;;;;;;2.33;0.67;;;18.20;31.40;;;;;;5112813;28;20517;-73
2021/05/16 12:36:49;;;;;;;1.60;0.80;;;18.30;31.40;;;;;;5115869;28;20434;-73
2021/05/16 12:39:30;;;;;;;2.10;0.70;;;18.60;31.50;;;;;;5116258;28;20467;-73
2021/05/16 12:41:57;;;;;;;2.93;0.87;;;18.80;30.80;;;;;;5116177;28;20434;-73
2021/05/16 12:44:25;;;;;;;1.93;0.90;;;19.00;31.90;;;;;;5115549;28;20466;-74
2021/05/16 12:46:54;;;;;;;2.10;1.20;;;19.20;32.60;;;;;;5109412;28;20466;-74
2021/05/16 12:49:24;;;;;;;1.83;0.87;;;19.20;31.50;;;;;;5096141;28;20435;-73
2021/05/16 12:52:00;;;;;;;2.17;1.07;;;19.00;31.70;;;;;;5097939;28;20422;-73
2021/05/16 12:54:28;;;;;;;1.93;0.60;;;19.10;32.20;;;;;;5095132;28;20850;-73
2021/05/16 12:57:02;;;;;;;3.93;0.80;;;18.90;30.80;;;;;;5096642;28;20442;-73
2021/05/16 12:59:35;;;;;;;1.87;0.63;;;18.60;31.20;;;;;;5095577;28;20428;-73
2021/05/16 13:02:12;;;;;;;2.80;0.80;;;18.50;30.80;;;;;;5094881;28;20782;-73
2021/05/16 13:04:50;;;;;;;2.17;0.90;;;18.40;31.60;;;;;;5095494;28;20471;-74